sensor_id;sensor_type;location;lat;lon;timestamp;temperature;humidity
24226;DHT22;51462;51.422;5.514;2024-01-30T00:00:43;7.80;99.90
24226;DHT22;51462;51.422;5.514;2024-01-30T00:03:09;7.80;99.90
24226;DHT22;51462;51.422;5.514;2024-01-30T00:05:34;7.80;99.90
24226;DHT22;51462;51.422;5.514;2024-01-30T00:08:00;7.70;99.90
24226;DHT22;51462;51.422;5.514;2024-01-30T00:10:25;7.70;99.90
24226;DHT22;51462;51.422;5.514;2024-01-30T00:12:51;7.70;99.90
24226;DHT22;51462;51.422;5.514;2024-01-30T00:15:16;7.70;99.90
24226;DHT22;51462;51.422;5.514;2024-01-30T00:17:42;7.70;99.90
24226;DHT22;51462;51.422;5.514;2024-01-30T00:20:07;7.70;99.90
24226;DHT22;51462;51.422;5.514;2024-01-30T00:22:34;7.70;99.90
24226;DHT22;51462;51.422;5.514;2024-01-30T00:25:00;7.70;99.90
24226;DHT22;51462;51.422;5.514;2024-01-30T00:27:26;7.70;99.90
24226;DHT22;51462;51.422;5.514;2024-01-30T00:29:53;7.70;99.90
24226;DHT22;51462;51.422;5.514;2024-01-30T00:32:18;7.60;99.90
24226;DHT22;51462;51.422;5.514;2024-01-30T00:34:44;7.60;99.90
24226;DHT22;51462;51.422;5.514;2024-01-30T00:37:10;7.60;99.90
24226;DHT22;51462;51.422;5.514;2024-01-30T00:39:36;7.70;99.90
24226;DHT22;51462;51.422;5.514;2024-01-30T00:42:01;7.70;99.90
24226;DHT22;51462;51.422;5.514;2024-01-30T00:44:27;7.60;99.90
24226;DHT22;51462;51.422;5.514;2024-01-30T00:46:53;7.60;99.90
24226;DHT22;51462;51.422;5.514;2024-01-30T00:49:19;7.60;99.90
24226;DHT22;51462;51.422;5.514;2024-01-30T00:51:46;7.60;99.90
24226;DHT22;51462;51.422;5.514;2024-01-30T00:54:11;7.60;99.90
24226;DHT22;51462;51.422;5.514;2024-01-30T00:56:37;7.50;99.90
24226;DHT22;51462;51.422;5.514;2024-01-30T00:59:03;7.60;99.90
24226;DHT22;51462;51.422;5.514;2024-01-30T01:01:28;7.60;99.90
24226;DHT22;51462;51.422;5.514;2024-01-30T01:03:54;7.50;99.90
24226;DHT22;51462;51.422;5.514;2024-01-30T01:06:19;7.50;99.90
24226;DHT22;51462;51.422;5.514;2024-01-30T01:08:45;7.50;99.90
24226;DHT22;51462;51.422;5.514;2024-01-30T01:11:10;7.40;99.90
24226;DHT22;51462;51.422;5.514;2024-01-30T01:13:36;7.40;99.90
24226;DHT22;51462;51.422;5.514;2024-01-30T01:16:01;7.40;99.90
24226;DHT22;51462;51.422;5.514;2024-01-30T01:18:27;7.30;99.90
24226;DHT22;51462;51.422;5.514;2024-01-30T01:20:52;7.40;99.90
24226;DHT22;51462;51.422;5.514;2024-01-30T01:23:18;7.40;99.90
24226;DHT22;51462;51.422;5.514;2024-01-30T01:25:44;7.30;99.90
24226;DHT22;51462;51.422;5.514;2024-01-30T01:28:09;7.40;99.90
24226;DHT22;51462;51.422;5.514;2024-01-30T01:30:35;7.30;99.90
24226;DHT22;51462;51.422;5.514;2024-01-30T01:33:00;7.30;99.90
24226;DHT22;51462;51.422;5.514;2024-01-30T01:35:27;7.30;99.90
24226;DHT22;51462;51.422;5.514;2024-01-30T01:37:54;7.30;99.90
24226;DHT22;51462;51.422;5.514;2024-01-30T01:40:25;7.40;99.90
24226;DHT22;51462;51.422;5.514;2024-01-30T01:42:52;7.40;99.90
24226;DHT22;51462;51.422;5.514;2024-01-30T01:45:18;7.40;99.90
24226;DHT22;51462;51.422;5.514;2024-01-30T01:47:45;7.40;99.90
24226;DHT22;51462;51.422;5.514;2024-01-30T01:50:13;7.40;99.90
24226;DHT22;51462;51.422;5.514;2024-01-30T01:52:40;7.40;99.90
24226;DHT22;51462;51.422;5.514;2024-01-30T01:55:07;7.40;99.90
24226;DHT22;51462;51.422;5.514;2024-01-30T01:57:33;7.40;99.90
24226;DHT22;51462;51.422;5.514;2024-01-30T02:00:00;7.40;99.90
24226;DHT22;51462;51.422;5.514;2024-01-30T02:02:26;7.40;99.90
24226;DHT22;51462;51.422;5.514;2024-01-30T02:04:53;7.40;99.90
24226;DHT22;51462;51.422;5.514;2024-01-30T02:07:20;7.40;99.90
24226;DHT22;51462;51.422;5.514;2024-01-30T02:09:45;7.40;99.90
24226;DHT22;51462;51.422;5.514;2024-01-30T02:12:11;7.40;99.90
24226;DHT22;51462;51.422;5.514;2024-01-30T02:14:46;7.40;99.90
24226;DHT22;51462;51.422;5.514;2024-01-30T02:17:13;7.40;99.90
24226;DHT22;51462;51.422;5.514;2024-01-30T02:19:39;7.40;99.90
24226;DHT22;51462;51.422;5.514;2024-01-30T02:22:05;7.30;99.90
24226;DHT22;51462;51.422;5.514;2024-01-30T02:24:31;7.30;99.90
24226;DHT22;51462;51.422;5.514;2024-01-30T02:26:57;7.40;99.90
24226;DHT22;51462;51.422;5.514;2024-01-30T02:29:22;7.40;99.90
24226;DHT22;51462;51.422;5.514;2024-01-30T02:31:48;7.30;99.90
24226;DHT22;51462;51.422;5.514;2024-01-30T02:34:14;7.40;99.90
24226;DHT22;51462;51.422;5.514;2024-01-30T02:36:42;7.40;99.90
24226;DHT22;51462;51.422;5.514;2024-01-30T02:39:09;7.40;99.90
24226;DHT22;51462;51.422;5.514;2024-01-30T02:41:35;7.40;99.90
24226;DHT22;51462;51.422;5.514;2024-01-30T02:44:01;7.40;99.90
24226;DHT22;51462;51.422;5.514;2024-01-30T02:46:27;7.40;99.90
24226;DHT22;51462;51.422;5.514;2024-01-30T02:48:52;7.50;99.90
24226;DHT22;51462;51.422;5.514;2024-01-30T02:51:18;7.40;99.90
24226;DHT22;51462;51.422;5.514;2024-01-30T02:53:44;7.40;99.90
24226;DHT22;51462;51.422;5.514;2024-01-30T02:56:09;7.40;99.90
24226;DHT22;51462;51.422;5.514;2024-01-30T02:58:37;7.40;99.90
24226;DHT22;51462;51.422;5.514;2024-01-30T03:01:03;7.40;99.90
24226;DHT22;51462;51.422;5.514;2024-01-30T03:03:29;7.50;99.90
24226;DHT22;51462;51.422;5.514;2024-01-30T03:05:54;7.50;99.90
24226;DHT22;51462;51.422;5.514;2024-01-30T03:08:20;7.50;99.90
24226;DHT22;51462;51.422;5.514;2024-01-30T03:10:46;7.40;99.90
24226;DHT22;51462;51.422;5.514;2024-01-30T03:13:11;7.50;99.90
24226;DHT22;51462;51.422;5.514;2024-01-30T03:15:37;7.40;99.90
24226;DHT22;51462;51.422;5.514;2024-01-30T03:18:03;7.40;99.90
24226;DHT22;51462;51.422;5.514;2024-01-30T03:20:31;7.40;99.90
24226;DHT22;51462;51.422;5.514;2024-01-30T03:22:57;7.30;99.90
24226;DHT22;51462;51.422;5.514;2024-01-30T03:25:22;7.30;99.90
24226;DHT22;51462;51.422;5.514;2024-01-30T03:27:49;7.40;99.90
24226;DHT22;51462;51.422;5.514;2024-01-30T03:30:14;7.40;99.90
24226;DHT22;51462;51.422;5.514;2024-01-30T03:32:40;7.40;99.90
24226;DHT22;51462;51.422;5.514;2024-01-30T03:35:06;7.30;99.90
24226;DHT22;51462;51.422;5.514;2024-01-30T03:37:31;7.40;99.90
24226;DHT22;51462;51.422;5.514;2024-01-30T03:39:57;7.30;99.90
24226;DHT22;51462;51.422;5.514;2024-01-30T03:42:22;7.40;99.90
24226;DHT22;51462;51.422;5.514;2024-01-30T03:44:48;7.50;99.90
24226;DHT22;51462;51.422;5.514;2024-01-30T03:47:14;7.50;99.90
24226;DHT22;51462;51.422;5.514;2024-01-30T03:49:40;7.50;99.90
24226;DHT22;51462;51.422;5.514;2024-01-30T03:52:05;7.60;99.90
24226;DHT22;51462;51.422;5.514;2024-01-30T03:54:31;7.70;99.90
24226;DHT22;51462;51.422;5.514;2024-01-30T03:56:56;7.70;99.90
24226;DHT22;51462;51.422;5.514;2024-01-30T03:59:22;7.70;99.90
24226;DHT22;51462;51.422;5.514;2024-01-30T04:01:50;7.70;99.90
24226;DHT22;51462;51.422;5.514;2024-01-30T04:04:20;7.80;99.90
24226;DHT22;51462;51.422;5.514;2024-01-30T04:06:46;7.80;99.90
24226;DHT22;51462;51.422;5.514;2024-01-30T04:09:12;7.80;99.90
24226;DHT22;51462;51.422;5.514;2024-01-30T04:11:39;7.80;99.90
24226;DHT22;51462;51.422;5.514;2024-01-30T04:14:04;7.90;99.90
24226;DHT22;51462;51.422;5.514;2024-01-30T04:16:30;7.80;99.90
24226;DHT22;51462;51.422;5.514;2024-01-30T04:18:56;7.90;99.90
24226;DHT22;51462;51.422;5.514;2024-01-30T04:21:21;7.90;99.90
24226;DHT22;51462;51.422;5.514;2024-01-30T04:23:48;7.90;99.90
24226;DHT22;51462;51.422;5.514;2024-01-30T04:26:14;7.90;99.90
24226;DHT22;51462;51.422;5.514;2024-01-30T04:28:41;8.00;99.90
24226;DHT22;51462;51.422;5.514;2024-01-30T04:31:08;8.00;99.90
24226;DHT22;51462;51.422;5.514;2024-01-30T04:33:33;8.10;99.90
24226;DHT22;51462;51.422;5.514;2024-01-30T04:35:59;8.00;99.90
24226;DHT22;51462;51.422;5.514;2024-01-30T04:38:25;8.00;99.90
24226;DHT22;51462;51.422;5.514;2024-01-30T04:40:50;8.00;99.90
24226;DHT22;51462;51.422;5.514;2024-01-30T04:43:16;8.00;99.90
24226;DHT22;51462;51.422;5.514;2024-01-30T04:45:42;8.00;99.90
24226;DHT22;51462;51.422;5.514;2024-01-30T04:48:07;8.00;99.90
24226;DHT22;51462;51.422;5.514;2024-01-30T04:50:33;8.10;99.90
24226;DHT22;51462;51.422;5.514;2024-01-30T04:52:58;8.10;99.90
24226;DHT22;51462;51.422;5.514;2024-01-30T04:55:24;8.10;99.90
24226;DHT22;51462;51.422;5.514;2024-01-30T04:57:50;8.10;99.90
24226;DHT22;51462;51.422;5.514;2024-01-30T05:00:15;8.10;99.90
24226;DHT22;51462;51.422;5.514;2024-01-30T05:02:41;8.10;99.90
24226;DHT22;51462;51.422;5.514;2024-01-30T05:05:07;8.20;99.90
24226;DHT22;51462;51.422;5.514;2024-01-30T05:07:33;8.20;99.90
24226;DHT22;51462;51.422;5.514;2024-01-30T05:09:59;8.20;99.90
24226;DHT22;51462;51.422;5.514;2024-01-30T05:12:25;8.30;99.90
24226;DHT22;51462;51.422;5.514;2024-01-30T05:14:51;8.20;99.90
24226;DHT22;51462;51.422;5.514;2024-01-30T05:17:17;8.30;99.90
24226;DHT22;51462;51.422;5.514;2024-01-30T05:19:43;8.40;99.90
24226;DHT22;51462;51.422;5.514;2024-01-30T05:22:09;8.40;99.90
24226;DHT22;51462;51.422;5.514;2024-01-30T05:24:35;8.30;99.90
24226;DHT22;51462;51.422;5.514;2024-01-30T05:27:01;8.30;99.90
24226;DHT22;51462;51.422;5.514;2024-01-30T05:29:27;8.40;99.90
24226;DHT22;51462;51.422;5.514;2024-01-30T05:31:52;8.40;99.90
24226;DHT22;51462;51.422;5.514;2024-01-30T05:34:18;8.40;99.90
24226;DHT22;51462;51.422;5.514;2024-01-30T05:36:43;8.40;99.90
24226;DHT22;51462;51.422;5.514;2024-01-30T05:39:09;8.40;99.90
24226;DHT22;51462;51.422;5.514;2024-01-30T05:41:35;8.40;99.90
24226;DHT22;51462;51.422;5.514;2024-01-30T05:44:01;8.30;99.90
24226;DHT22;51462;51.422;5.514;2024-01-30T05:46:27;8.40;99.90
24226;DHT22;51462;51.422;5.514;2024-01-30T05:48:52;8.50;99.90
24226;DHT22;51462;51.422;5.514;2024-01-30T05:51:18;8.50;99.90
24226;DHT22;51462;51.422;5.514;2024-01-30T05:53:44;8.40;99.90
24226;DHT22;51462;51.422;5.514;2024-01-30T05:56:09;8.50;99.90
24226;DHT22;51462;51.422;5.514;2024-01-30T05:58:35;8.50;99.90
24226;DHT22;51462;51.422;5.514;2024-01-30T06:01:03;8.50;99.90
24226;DHT22;51462;51.422;5.514;2024-01-30T06:03:28;8.50;99.90
24226;DHT22;51462;51.422;5.514;2024-01-30T06:05:54;8.50;99.90
24226;DHT22;51462;51.422;5.514;2024-01-30T06:08:19;8.50;99.90
24226;DHT22;51462;51.422;5.514;2024-01-30T06:10:45;8.50;99.90
24226;DHT22;51462;51.422;5.514;2024-01-30T06:13:10;8.50;99.90
24226;DHT22;51462;51.422;5.514;2024-01-30T06:15:36;8.60;99.90
24226;DHT22;51462;51.422;5.514;2024-01-30T06:18:02;8.60;99.90
24226;DHT22;51462;51.422;5.514;2024-01-30T06:20:27;8.60;99.90
24226;DHT22;51462;51.422;5.514;2024-01-30T06:22:53;8.70;99.90
24226;DHT22;51462;51.422;5.514;2024-01-30T06:25:19;8.70;99.90
24226;DHT22;51462;51.422;5.514;2024-01-30T06:27:45;8.70;99.90
24226;DHT22;51462;51.422;5.514;2024-01-30T06:30:11;8.70;99.90
24226;DHT22;51462;51.422;5.514;2024-01-30T06:32:36;8.70;99.90
24226;DHT22;51462;51.422;5.514;2024-01-30T06:35:02;8.70;99.90
24226;DHT22;51462;51.422;5.514;2024-01-30T06:37:28;8.60;99.90
24226;DHT22;51462;51.422;5.514;2024-01-30T06:39:53;8.60;99.90
24226;DHT22;51462;51.422;5.514;2024-01-30T06:42:19;8.70;99.90
24226;DHT22;51462;51.422;5.514;2024-01-30T06:44:45;8.60;99.90
24226;DHT22;51462;51.422;5.514;2024-01-30T06:47:10;8.60;99.90
24226;DHT22;51462;51.422;5.514;2024-01-30T06:49:36;8.70;99.90
24226;DHT22;51462;51.422;5.514;2024-01-30T06:52:05;8.70;99.90
24226;DHT22;51462;51.422;5.514;2024-01-30T06:54:31;8.70;99.90
24226;DHT22;51462;51.422;5.514;2024-01-30T06:56:58;8.80;99.90
24226;DHT22;51462;51.422;5.514;2024-01-30T06:59:24;8.70;99.90
24226;DHT22;51462;51.422;5.514;2024-01-30T07:01:49;8.80;99.90
24226;DHT22;51462;51.422;5.514;2024-01-30T07:04:15;8.80;99.90
24226;DHT22;51462;51.422;5.514;2024-01-30T07:06:41;8.80;99.90
24226;DHT22;51462;51.422;5.514;2024-01-30T07:09:07;8.80;99.90
24226;DHT22;51462;51.422;5.514;2024-01-30T07:11:33;8.70;99.90
24226;DHT22;51462;51.422;5.514;2024-01-30T07:13:59;8.80;99.90
24226;DHT22;51462;51.422;5.514;2024-01-30T07:16:25;8.70;99.90
24226;DHT22;51462;51.422;5.514;2024-01-30T07:18:51;8.70;99.90
24226;DHT22;51462;51.422;5.514;2024-01-30T07:21:16;8.80;99.90
24226;DHT22;51462;51.422;5.514;2024-01-30T07:23:42;8.80;99.90
24226;DHT22;51462;51.422;5.514;2024-01-30T07:26:08;8.90;99.90
24226;DHT22;51462;51.422;5.514;2024-01-30T07:28:35;8.80;99.90
24226;DHT22;51462;51.422;5.514;2024-01-30T07:31:01;8.90;99.90
24226;DHT22;51462;51.422;5.514;2024-01-30T07:33:27;9.00;99.90
24226;DHT22;51462;51.422;5.514;2024-01-30T07:35:53;8.90;99.90
24226;DHT22;51462;51.422;5.514;2024-01-30T07:38:19;8.90;99.90
24226;DHT22;51462;51.422;5.514;2024-01-30T07:40:45;8.90;99.90
24226;DHT22;51462;51.422;5.514;2024-01-30T07:43:11;8.90;99.90
24226;DHT22;51462;51.422;5.514;2024-01-30T07:45:37;9.10;99.90
24226;DHT22;51462;51.422;5.514;2024-01-30T07:48:05;9.10;99.90
24226;DHT22;51462;51.422;5.514;2024-01-30T07:50:30;9.00;99.90
24226;DHT22;51462;51.422;5.514;2024-01-30T07:52:56;9.10;99.90
24226;DHT22;51462;51.422;5.514;2024-01-30T07:55:22;9.00;99.90
24226;DHT22;51462;51.422;5.514;2024-01-30T07:57:52;9.00;99.90
24226;DHT22;51462;51.422;5.514;2024-01-30T08:00:18;9.00;99.90
24226;DHT22;51462;51.422;5.514;2024-01-30T08:02:54;9.00;99.90
24226;DHT22;51462;51.422;5.514;2024-01-30T08:05:21;9.00;99.90
24226;DHT22;51462;51.422;5.514;2024-01-30T08:07:48;9.10;99.90
24226;DHT22;51462;51.422;5.514;2024-01-30T08:10:14;9.10;99.90
24226;DHT22;51462;51.422;5.514;2024-01-30T08:12:40;9.10;99.90
24226;DHT22;51462;51.422;5.514;2024-01-30T08:15:06;9.00;99.90
24226;DHT22;51462;51.422;5.514;2024-01-30T08:17:31;9.00;99.90
24226;DHT22;51462;51.422;5.514;2024-01-30T08:19:57;9.00;99.90
24226;DHT22;51462;51.422;5.514;2024-01-30T08:22:22;9.00;99.90
24226;DHT22;51462;51.422;5.514;2024-01-30T08:24:48;9.10;99.90
24226;DHT22;51462;51.422;5.514;2024-01-30T08:27:14;9.10;99.90
24226;DHT22;51462;51.422;5.514;2024-01-30T08:29:40;9.10;99.90
24226;DHT22;51462;51.422;5.514;2024-01-30T08:32:06;9.10;99.90
24226;DHT22;51462;51.422;5.514;2024-01-30T08:34:32;9.10;99.90
24226;DHT22;51462;51.422;5.514;2024-01-30T08:36:57;9.20;99.90
24226;DHT22;51462;51.422;5.514;2024-01-30T08:39:23;9.20;99.90
24226;DHT22;51462;51.422;5.514;2024-01-30T08:41:49;9.20;99.90
24226;DHT22;51462;51.422;5.514;2024-01-30T08:44:15;9.20;99.90
24226;DHT22;51462;51.422;5.514;2024-01-30T08:46:40;9.20;99.90
24226;DHT22;51462;51.422;5.514;2024-01-30T08:49:06;9.20;99.90
24226;DHT22;51462;51.422;5.514;2024-01-30T08:51:31;9.20;99.90
24226;DHT22;51462;51.422;5.514;2024-01-30T08:53:57;9.30;99.90
24226;DHT22;51462;51.422;5.514;2024-01-30T08:56:23;9.30;99.90
24226;DHT22;51462;51.422;5.514;2024-01-30T08:58:48;9.30;99.90
24226;DHT22;51462;51.422;5.514;2024-01-30T09:01:14;9.30;99.90
24226;DHT22;51462;51.422;5.514;2024-01-30T09:03:40;9.40;99.90
24226;DHT22;51462;51.422;5.514;2024-01-30T09:06:12;9.50;99.90
24226;DHT22;51462;51.422;5.514;2024-01-30T09:08:38;9.50;99.90
24226;DHT22;51462;51.422;5.514;2024-01-30T09:11:14;9.50;99.90
24226;DHT22;51462;51.422;5.514;2024-01-30T09:13:39;9.60;99.90
24226;DHT22;51462;51.422;5.514;2024-01-30T09:16:05;9.70;99.90
24226;DHT22;51462;51.422;5.514;2024-01-30T09:18:31;9.80;99.90
24226;DHT22;51462;51.422;5.514;2024-01-30T09:20:57;9.70;99.90
24226;DHT22;51462;51.422;5.514;2024-01-30T09:23:23;9.80;99.90
24226;DHT22;51462;51.422;5.514;2024-01-30T09:25:49;9.70;99.90
24226;DHT22;51462;51.422;5.514;2024-01-30T09:28:14;9.80;99.90
24226;DHT22;51462;51.422;5.514;2024-01-30T09:30:40;9.70;99.90
24226;DHT22;51462;51.422;5.514;2024-01-30T09:33:06;9.90;99.90
24226;DHT22;51462;51.422;5.514;2024-01-30T09:35:32;9.80;99.90
24226;DHT22;51462;51.422;5.514;2024-01-30T09:37:57;9.90;99.90
24226;DHT22;51462;51.422;5.514;2024-01-30T09:40:24;10.00;99.90
24226;DHT22;51462;51.422;5.514;2024-01-30T09:42:52;9.90;99.90
24226;DHT22;51462;51.422;5.514;2024-01-30T09:45:19;9.90;99.90
24226;DHT22;51462;51.422;5.514;2024-01-30T09:47:45;9.80;99.90
24226;DHT22;51462;51.422;5.514;2024-01-30T09:50:13;9.90;99.90
24226;DHT22;51462;51.422;5.514;2024-01-30T09:52:39;10.10;99.90
24226;DHT22;51462;51.422;5.514;2024-01-30T09:55:06;10.10;99.90
24226;DHT22;51462;51.422;5.514;2024-01-30T09:57:32;10.10;99.90
24226;DHT22;51462;51.422;5.514;2024-01-30T09:59:58;10.20;99.90
24226;DHT22;51462;51.422;5.514;2024-01-30T10:02:23;10.10;99.90
24226;DHT22;51462;51.422;5.514;2024-01-30T10:04:50;10.20;99.90
24226;DHT22;51462;51.422;5.514;2024-01-30T10:07:17;10.10;99.90
24226;DHT22;51462;51.422;5.514;2024-01-30T10:09:42;10.20;99.90
24226;DHT22;51462;51.422;5.514;2024-01-30T10:12:09;10.10;99.90
24226;DHT22;51462;51.422;5.514;2024-01-30T10:14:41;10.40;99.90
24226;DHT22;51462;51.422;5.514;2024-01-30T10:17:11;10.30;99.90
24226;DHT22;51462;51.422;5.514;2024-01-30T10:19:38;10.20;99.90
24226;DHT22;51462;51.422;5.514;2024-01-30T10:22:05;10.40;99.90
24226;DHT22;51462;51.422;5.514;2024-01-30T10:24:30;10.30;99.90
24226;DHT22;51462;51.422;5.514;2024-01-30T10:26:56;10.40;99.90
24226;DHT22;51462;51.422;5.514;2024-01-30T10:29:22;10.40;99.90
24226;DHT22;51462;51.422;5.514;2024-01-30T10:32:04;10.40;99.90
24226;DHT22;51462;51.422;5.514;2024-01-30T10:34:30;10.40;99.90
24226;DHT22;51462;51.422;5.514;2024-01-30T10:37:02;10.50;99.90
24226;DHT22;51462;51.422;5.514;2024-01-30T10:39:32;10.40;99.90
24226;DHT22;51462;51.422;5.514;2024-01-30T10:42:03;10.50;99.90
24226;DHT22;51462;51.422;5.514;2024-01-30T10:44:39;10.50;99.90
24226;DHT22;51462;51.422;5.514;2024-01-30T10:47:12;10.50;99.90
24226;DHT22;51462;51.422;5.514;2024-01-30T10:49:41;10.60;99.90
24226;DHT22;51462;51.422;5.514;2024-01-30T10:52:09;10.70;99.90
24226;DHT22;51462;51.422;5.514;2024-01-30T10:54:35;10.60;99.90
24226;DHT22;51462;51.422;5.514;2024-01-30T10:57:01;10.70;99.90
24226;DHT22;51462;51.422;5.514;2024-01-30T10:59:29;10.70;99.90
24226;DHT22;51462;51.422;5.514;2024-01-30T11:01:57;10.80;99.90
24226;DHT22;51462;51.422;5.514;2024-01-30T11:04:23;10.50;99.90
24226;DHT22;51462;51.422;5.514;2024-01-30T11:06:50;10.50;99.90
24226;DHT22;51462;51.422;5.514;2024-01-30T11:09:17;10.80;99.90
24226;DHT22;51462;51.422;5.514;2024-01-30T11:11:58;10.70;99.90
24226;DHT22;51462;51.422;5.514;2024-01-30T11:14:26;10.80;99.90
24226;DHT22;51462;51.422;5.514;2024-01-30T11:16:51;10.80;99.90
24226;DHT22;51462;51.422;5.514;2024-01-30T11:19:24;10.80;99.90
24226;DHT22;51462;51.422;5.514;2024-01-30T11:21:52;10.90;99.90
24226;DHT22;51462;51.422;5.514;2024-01-30T11:24:25;10.90;99.90
24226;DHT22;51462;51.422;5.514;2024-01-30T11:26:59;10.80;99.90
24226;DHT22;51462;51.422;5.514;2024-01-30T11:29:25;10.80;99.90
24226;DHT22;51462;51.422;5.514;2024-01-30T11:31:57;10.70;99.90
24226;DHT22;51462;51.422;5.514;2024-01-30T11:34:22;10.90;99.90
24226;DHT22;51462;51.422;5.514;2024-01-30T11:36:53;10.90;99.90
24226;DHT22;51462;51.422;5.514;2024-01-30T11:39:26;11.10;99.90
24226;DHT22;51462;51.422;5.514;2024-01-30T11:41:53;11.00;99.90
24226;DHT22;51462;51.422;5.514;2024-01-30T11:44:22;11.20;99.90
24226;DHT22;51462;51.422;5.514;2024-01-30T11:46:48;11.10;99.90
24226;DHT22;51462;51.422;5.514;2024-01-30T11:49:15;11.20;99.90
24226;DHT22;51462;51.422;5.514;2024-01-30T11:51:41;11.10;99.90
24226;DHT22;51462;51.422;5.514;2024-01-30T11:54:07;11.00;99.90
24226;DHT22;51462;51.422;5.514;2024-01-30T11:56:33;11.00;99.90
24226;DHT22;51462;51.422;5.514;2024-01-30T11:58:58;11.20;99.90
24226;DHT22;51462;51.422;5.514;2024-01-30T12:01:26;11.40;99.90
24226;DHT22;51462;51.422;5.514;2024-01-30T12:03:52;11.50;99.90
24226;DHT22;51462;51.422;5.514;2024-01-30T12:06:17;11.50;99.90
24226;DHT22;51462;51.422;5.514;2024-01-30T12:08:54;11.50;99.90
24226;DHT22;51462;51.422;5.514;2024-01-30T12:11:20;11.50;99.90
24226;DHT22;51462;51.422;5.514;2024-01-30T12:13:45;11.40;99.90
24226;DHT22;51462;51.422;5.514;2024-01-30T12:16:11;11.70;99.90
24226;DHT22;51462;51.422;5.514;2024-01-30T12:18:36;11.60;99.90
24226;DHT22;51462;51.422;5.514;2024-01-30T12:21:02;11.70;99.90
24226;DHT22;51462;51.422;5.514;2024-01-30T12:23:28;11.50;99.90
24226;DHT22;51462;51.422;5.514;2024-01-30T12:25:54;11.50;99.90
24226;DHT22;51462;51.422;5.514;2024-01-30T12:28:20;11.90;99.90
24226;DHT22;51462;51.422;5.514;2024-01-30T12:30:46;12.00;99.90
24226;DHT22;51462;51.422;5.514;2024-01-30T12:33:17;12.00;99.90
24226;DHT22;51462;51.422;5.514;2024-01-30T12:35:46;11.70;99.90
24226;DHT22;51462;51.422;5.514;2024-01-30T12:38:13;11.50;99.90
24226;DHT22;51462;51.422;5.514;2024-01-30T12:40:39;11.30;99.90
24226;DHT22;51462;51.422;5.514;2024-01-30T12:43:05;11.40;99.90
24226;DHT22;51462;51.422;5.514;2024-01-30T12:45:30;11.40;99.90
24226;DHT22;51462;51.422;5.514;2024-01-30T12:47:56;11.30;99.90
24226;DHT22;51462;51.422;5.514;2024-01-30T12:50:21;11.40;99.90
24226;DHT22;51462;51.422;5.514;2024-01-30T12:52:47;11.80;99.90
24226;DHT22;51462;51.422;5.514;2024-01-30T12:55:13;11.70;99.90
24226;DHT22;51462;51.422;5.514;2024-01-30T12:57:39;11.60;99.90
24226;DHT22;51462;51.422;5.514;2024-01-30T13:00:05;11.50;99.90
24226;DHT22;51462;51.422;5.514;2024-01-30T13:02:33;11.50;99.90
24226;DHT22;51462;51.422;5.514;2024-01-30T13:05:05;11.70;99.90
24226;DHT22;51462;51.422;5.514;2024-01-30T13:07:30;11.80;99.90
24226;DHT22;51462;51.422;5.514;2024-01-30T13:09:59;11.70;99.90
24226;DHT22;51462;51.422;5.514;2024-01-30T13:12:28;11.50;99.90
24226;DHT22;51462;51.422;5.514;2024-01-30T13:14:54;11.40;99.90
24226;DHT22;51462;51.422;5.514;2024-01-30T13:17:20;11.20;99.90
24226;DHT22;51462;51.422;5.514;2024-01-30T13:19:45;11.20;99.90
24226;DHT22;51462;51.422;5.514;2024-01-30T13:22:11;11.10;99.90
24226;DHT22;51462;51.422;5.514;2024-01-30T13:24:36;11.00;99.90
24226;DHT22;51462;51.422;5.514;2024-01-30T13:27:02;11.00;99.90
24226;DHT22;51462;51.422;5.514;2024-01-30T13:29:31;10.90;99.90
24226;DHT22;51462;51.422;5.514;2024-01-30T13:31:56;11.00;99.90
24226;DHT22;51462;51.422;5.514;2024-01-30T13:34:22;11.10;99.90
24226;DHT22;51462;51.422;5.514;2024-01-30T13:36:47;11.00;99.90
24226;DHT22;51462;51.422;5.514;2024-01-30T13:39:14;11.00;99.90
24226;DHT22;51462;51.422;5.514;2024-01-30T13:41:41;11.00;99.90
24226;DHT22;51462;51.422;5.514;2024-01-30T13:44:07;11.30;99.90
24226;DHT22;51462;51.422;5.514;2024-01-30T13:46:34;11.40;99.90
24226;DHT22;51462;51.422;5.514;2024-01-30T13:49:00;11.40;99.90
24226;DHT22;51462;51.422;5.514;2024-01-30T13:51:25;11.40;99.90
24226;DHT22;51462;51.422;5.514;2024-01-30T13:53:51;11.30;99.90
24226;DHT22;51462;51.422;5.514;2024-01-30T13:56:17;11.20;99.90
24226;DHT22;51462;51.422;5.514;2024-01-30T13:58:42;11.20;99.90
24226;DHT22;51462;51.422;5.514;2024-01-30T14:01:08;11.20;99.90
24226;DHT22;51462;51.422;5.514;2024-01-30T14:03:35;11.20;99.90
24226;DHT22;51462;51.422;5.514;2024-01-30T14:06:01;11.10;99.90
24226;DHT22;51462;51.422;5.514;2024-01-30T14:08:27;11.10;99.90
24226;DHT22;51462;51.422;5.514;2024-01-30T14:10:54;11.10;99.90
24226;DHT22;51462;51.422;5.514;2024-01-30T14:13:21;11.10;99.90
24226;DHT22;51462;51.422;5.514;2024-01-30T14:15:48;11.10;99.90
24226;DHT22;51462;51.422;5.514;2024-01-30T14:18:15;11.00;99.90
24226;DHT22;51462;51.422;5.514;2024-01-30T14:20:41;10.90;99.90
24226;DHT22;51462;51.422;5.514;2024-01-30T14:23:07;10.90;99.90
24226;DHT22;51462;51.422;5.514;2024-01-30T14:25:32;10.90;99.90
24226;DHT22;51462;51.422;5.514;2024-01-30T14:27:58;10.90;99.90
24226;DHT22;51462;51.422;5.514;2024-01-30T14:30:24;10.90;99.90
24226;DHT22;51462;51.422;5.514;2024-01-30T14:32:50;10.80;99.90
24226;DHT22;51462;51.422;5.514;2024-01-30T14:35:15;10.80;99.90
24226;DHT22;51462;51.422;5.514;2024-01-30T14:37:45;10.80;99.90
24226;DHT22;51462;51.422;5.514;2024-01-30T14:40:10;10.80;99.90
24226;DHT22;51462;51.422;5.514;2024-01-30T14:42:36;10.80;99.90
24226;DHT22;51462;51.422;5.514;2024-01-30T14:45:03;10.70;99.90
24226;DHT22;51462;51.422;5.514;2024-01-30T14:47:29;10.70;99.90
24226;DHT22;51462;51.422;5.514;2024-01-30T14:49:56;10.70;99.90
24226;DHT22;51462;51.422;5.514;2024-01-30T14:52:22;10.70;99.90
24226;DHT22;51462;51.422;5.514;2024-01-30T14:54:48;10.70;99.90
24226;DHT22;51462;51.422;5.514;2024-01-30T14:57:14;10.60;99.90
24226;DHT22;51462;51.422;5.514;2024-01-30T14:59:40;10.50;99.90
24226;DHT22;51462;51.422;5.514;2024-01-30T15:02:06;10.50;99.90
24226;DHT22;51462;51.422;5.514;2024-01-30T15:04:32;10.50;99.90
24226;DHT22;51462;51.422;5.514;2024-01-30T15:06:57;10.50;99.90
24226;DHT22;51462;51.422;5.514;2024-01-30T15:09:23;10.40;99.90
24226;DHT22;51462;51.422;5.514;2024-01-30T15:11:52;10.30;99.90
24226;DHT22;51462;51.422;5.514;2024-01-30T15:14:18;10.20;99.90
24226;DHT22;51462;51.422;5.514;2024-01-30T15:16:44;10.10;99.90
24226;DHT22;51462;51.422;5.514;2024-01-30T15:19:10;10.00;99.90
24226;DHT22;51462;51.422;5.514;2024-01-30T15:21:35;10.00;99.90
24226;DHT22;51462;51.422;5.514;2024-01-30T15:24:04;9.80;99.90
24226;DHT22;51462;51.422;5.514;2024-01-30T15:26:29;9.80;99.90
24226;DHT22;51462;51.422;5.514;2024-01-30T15:28:55;9.80;99.90
24226;DHT22;51462;51.422;5.514;2024-01-30T15:31:21;9.80;99.90
24226;DHT22;51462;51.422;5.514;2024-01-30T15:33:47;9.80;99.90